Time;durP1;ratioP1;P1;durP2;ratioP2;P2;SDS_P1;SDS_P2;PMS_P1;PMS_P2;Temp;Humidity;BMP_temperature;BMP_pressure;BME280_temperature;BME280_humidity;BME280_pressure;Samples;Min_cycle;Max_cycle;Signal;HPM_P1;HPM_P2
2022/12/12 00:02:05;;;;;;;23.75;6.00;;;;;;;3.17;81.77;93888.34;5004074;28;20128;-83
2022/12/12 00:04:31;;;;;;;7.88;5.75;;;;;;;2.67;82.52;93782.44;5020545;28;20029;-81
2022/12/12 00:06:56;;;;;;;8.80;6.03;;;;;;;3.49;81.35;93894.19;5025997;28;20045;-83
2022/12/12 00:09:21;;;;;;;10.50;5.75;;;;;;;3.14;80.52;93860.81;5019016;28;20041;-83
2022/12/12 00:11:47;;;;;;;6.78;4.97;;;;;;;3.09;81.32;93847.72;5003987;28;20043;-83
2022/12/12 00:14:12;;;;;;;8.02;5.53;;;;;;;3.09;81.50;93851.13;5011358;28;20060;-83
2022/12/12 00:16:38;;;;;;;9.98;6.35;;;;;;;3.79;81.20;93958.97;5041701;28;20705;-83
2022/12/12 00:19:03;;;;;;;7.00;5.07;;;;;;;2.80;81.44;93820.44;5029975;28;20507;-83
2022/12/12 00:21:29;;;;;;;7.40;5.47;;;;;;;4.03;81.51;93978.41;5010274;28;20045;-83
2022/12/12 00:23:56;;;;;;;10.02;5.97;;;;;;;4.26;81.11;93983.13;5015670;28;20888;-83
2022/12/12 00:26:28;;;;;;;8.38;5.07;;;;;;;3.33;79.80;93814.75;5004229;28;20053;-83
2022/12/12 00:28:55;;;;;;;8.75;5.50;;;;;;;3.39;79.29;93813.69;5021533;28;20041;-83
2022/12/12 00:31:20;;;;;;;6.70;5.22;;;;;;;4.02;79.30;93916.50;5002939;28;20065;-83
2022/12/12 00:33:47;;;;;;;8.15;5.30;;;;;;;4.27;80.42;93928.81;5002935;28;20045;-81
2022/12/12 00:36:13;;;;;;;8.05;5.63;;;;;;;4.60;80.41;93961.56;5040761;28;20099;-81
2022/12/12 00:38:39;;;;;;;8.65;6.25;;;;;;;4.52;80.98;93949.75;5039907;28;20416;-82
2022/12/12 00:41:05;;;;;;;9.70;7.20;;;;;;;4.45;81.05;93944.00;5022108;28;20827;-82
2022/12/12 00:43:31;;;;;;;10.85;7.28;;;;;;;4.48;80.27;93935.59;5040806;28;20575;-82
2022/12/12 00:46:01;;;;;;;15.90;10.18;;;;;;;4.86;79.86;93973.59;5034938;28;20045;-82
2022/12/12 00:48:27;;;;;;;23.10;12.40;;;;;;;3.61;78.80;93778.56;5030654;28;20410;-82
2022/12/12 00:50:53;;;;;;;23.38;13.30;;;;;;;3.84;78.67;93807.66;5032073;28;20218;-82
2022/12/12 00:53:19;;;;;;;25.40;13.95;;;;;;;4.62;79.31;93944.50;5003356;28;20046;-81
2022/12/12 00:55:44;;;;;;;17.75;12.43;;;;;;;4.23;78.89;93894.44;4991962;28;20088;-82
2022/12/12 00:58:11;;;;;;;18.27;11.70;;;;;;;4.83;78.74;93994.34;5011676;28;20530;-82
2022/12/12 01:00:40;;;;;;;20.13;12.60;;;;;;;4.05;78.33;93871.34;5008515;28;20049;-82
2022/12/12 01:03:05;;;;;;;18.73;11.77;;;;;;;4.73;79.33;94031.16;5020076;28;20700;-82
2022/12/12 01:05:31;;;;;;;17.08;11.43;;;;;;;4.40;79.18;93937.97;5041494;28;20048;-82
2022/12/12 01:07:57;;;;;;;21.60;12.13;;;;;;;4.20;78.55;93920.41;5023526;28;20083;-81
2022/12/12 01:10:23;;;;;;;18.00;11.82;;;;;;;4.04;78.39;93887.38;5003479;28;20076;-82
2022/12/12 01:12:48;;;;;;;24.88;13.30;;;;;;;4.78;78.69;93999.63;5021910;28;20045;-82
2022/12/12 01:15:15;;;;;;;22.52;12.90;;;;;;;4.18;78.15;93919.91;5020954;28;20128;-82
2022/12/12 01:17:41;;;;;;;19.95;12.65;;;;;;;3.90;77.84;93884.47;5026975;28;20140;-82
2022/12/12 01:20:16;;;;;;;21.95;12.32;;;;;;;4.79;77.83;93998.56;5040142;28;20143;-82
2022/12/12 01:22:42;;;;;;;20.95;11.95;;;;;;;4.28;78.93;93910.16;5041454;28;20037;-82
2022/12/12 01:25:10;;;;;;;19.02;12.43;;;;;;;4.58;78.29;93995.97;5013673;28;20075;-82
2022/12/12 01:27:36;;;;;;;18.48;11.75;;;;;;;3.78;78.39;93861.16;5021834;28;20042;-82
2022/12/12 01:30:02;;;;;;;20.85;11.70;;;;;;;4.72;78.17;94006.72;5021637;28;20132;-82
2022/12/12 01:32:28;;;;;;;18.33;11.15;;;;;;;3.78;78.49;93861.16;4990840;28;20073;-83
2022/12/12 01:34:53;;;;;;;19.02;11.20;;;;;;;3.87;78.75;93882.41;5015552;28;20092;-82
2022/12/12 01:37:19;;;;;;;20.27;12.23;;;;;;;4.04;78.49;93893.41;4987966;28;20493;-83
2022/12/12 01:39:44;;;;;;;23.10;11.90;;;;;;;4.17;78.92;93913.88;5016308;28;20048;-82
2022/12/12 01:42:15;;;;;;;18.77;11.77;;;;;;;3.99;78.73;93900.47;5023799;28;20045;-82
2022/12/12 01:44:48;;;;;;;17.83;10.73;;;;;;;4.78;78.66;94021.44;5040301;28;20037;-83
2022/12/12 01:47:20;;;;;;;17.52;10.80;;;;;;;4.65;78.60;93999.09;5003287;28;20128;-83
2022/12/12 01:49:54;;;;;;;21.48;11.77;;;;;;;4.72;78.42;94029.59;5025931;28;20810;-82
2022/12/12 01:52:27;;;;;;;17.65;10.75;;;;;;;4.78;78.14;94021.44;5018573;28;20045;-82
2022/12/12 01:54:57;;;;;;;17.92;11.20;;;;;;;2.48;77.75;93676.66;5007510;28;20045;-83
2022/12/12 01:57:31;;;;;;;18.17;11.52;;;;;;;4.45;77.98;93991.25;5024354;28;20657;-82
2022/12/12 02:00:01;;;;;;;19.13;10.57;;;;;;;4.00;77.91;93904.69;5008434;28;20836;-82
2022/12/12 02:02:28;;;;;;;20.33;12.05;;;;;;;3.98;77.81;93917.25;5027223;28;20049;-83
2022/12/12 02:04:54;;;;;;;21.50;13.32;;;;;;;3.99;77.46;93917.00;5006765;28;20096;-83
2022/12/12 02:07:19;;;;;;;16.27;10.73;;;;;;;4.43;76.95;93998.59;5014603;28;20049;-83
2022/12/12 02:09:47;;;;;;;18.75;11.73;;;;;;;3.80;76.83;93902.84;5033226;28;20100;-83
2022/12/12 02:12:14;;;;;;;20.45;12.52;;;;;;;4.65;77.15;94041.13;5010072;28;20044;-82
2022/12/12 02:14:44;;;;;;;18.17;12.10;;;;;;;3.81;77.23;93926.19;5033422;28;20045;-82
2022/12/12 02:17:38;;;;;;;22.92;12.25;;;;;;;4.46;77.15;94026.97;5031043;28;20513;-82
2022/12/12 02:20:37;;;;;;;19.00;11.48;;;;;;;4.55;77.00;94045.59;5017016;28;20076;-83
2022/12/12 02:23:29;;;;;;;20.85;11.38;;;;;;;4.06;77.68;93977.09;4953587;28;20053;-82
2022/12/12 02:26:17;;;;;;;20.60;12.32;;;;;;;4.48;77.80;94045.88;5011093;28;20696;-82
2022/12/12 02:29:15;;;;;;;18.75;10.80;;;;;;;3.88;76.98;93949.56;5019796;28;20044;-83
2022/12/12 02:31:51;;;;;;;16.42;10.93;;;;;;;4.45;77.08;94042.97;5024220;28;20038;-83
2022/12/12 02:34:20;;;;;;;21.92;12.13;;;;;;;4.43;77.21;94047.69;4995382;28;20054;-82
2022/12/12 02:36:52;;;;;;;18.77;11.63;;;;;;;3.94;77.47;94000.97;5003925;28;20526;-82
2022/12/12 02:39:31;;;;;;;20.52;13.00;;;;;;;4.37;77.85;94046.91;5006313;28;20057;-83
2022/12/12 02:42:04;;;;;;;23.17;14.80;;;;;;;4.37;77.91;94048.75;5002757;28;20392;-83
2022/12/12 02:44:42;;;;;;;23.90;14.43;;;;;;;3.76;77.52;93960.28;4987785;28;20056;-83
2022/12/12 02:47:28;;;;;;;27.23;15.80;;;;;;;3.80;77.08;93974.44;5030060;28;20120;-83
2022/12/12 02:50:03;;;;;;;25.38;16.05;;;;;;;4.15;77.04;94044.53;5019365;28;20131;-82
2022/12/12 02:52:30;;;;;;;23.77;14.95;;;;;;;3.62;77.23;93955.78;5006553;28;20056;-83
2022/12/12 02:54:55;;;;;;;26.25;14.90;;;;;;;3.28;77.55;93914.31;5006202;28;20045;-83
2022/12/12 02:57:24;;;;;;;23.67;14.90;;;;;;;4.07;77.00;94025.88;5005843;28;20054;-85
2022/12/12 02:59:54;;;;;;;25.95;14.80;;;;;;;3.15;77.26;93900.91;5002374;28;20051;-84
2022/12/12 03:02:51;;;;;;;25.45;15.05;;;;;;;4.01;77.21;94032.19;5005049;28;20037;-84
2022/12/12 03:08:32;;;;;;;26.52;14.98;;;;;;;3.96;77.76;94030.34;5020953;28;20435;-84
2022/12/12 03:11:10;;;;;;;26.00;14.10;;;;;;;3.94;77.71;94036.88;5028291;28;20060;-85
2022/12/12 03:14:03;;;;;;;22.20;13.43;;;;;;;3.28;77.58;93945.75;5007923;28;20044;-83
2022/12/12 03:16:50;;;;;;;26.45;13.77;;;;;;;3.86;77.67;94032.94;5025814;28;20120;-84
2022/12/12 03:19:21;;;;;;;25.23;13.50;;;;;;;3.83;77.38;94034.25;5033763;28;20361;-85
2022/12/12 03:21:46;;;;;;;;;;;;;;;3.81;78.14;94036.31;5022321;28;20089;-83
2022/12/12 03:24:15;;;;;;;21.95;12.75;;;;;;;3.83;78.20;94039.47;5037363;28;19971;-83
2022/12/12 03:26:57;;;;;;;25.33;13.52;;;;;;;3.14;77.67;93955.13;5021149;28;20044;-85
2022/12/12 03:29:43;;;;;;;22.60;13.05;;;;;;;3.15;77.80;93954.09;5004258;28;20148;-83
2022/12/12 03:32:18;;;;;;;20.95;13.95;;;;;;;2.97;78.19;93916.06;5024529;28;20070;-83
2022/12/12 03:34:51;;;;;;;21.63;12.68;;;;;;;3.00;77.54;93933.88;5007637;28;20047;-84
2022/12/12 03:37:22;;;;;;;18.42;12.90;;;;;;;3.64;77.65;94043.63;5007671;28;20045;-83
2022/12/12 03:40:03;;;;;;;24.63;13.68;;;;;;;3.62;77.67;94050.19;5009623;28;20048;-83
2022/12/12 03:42:42;;;;;;;24.38;15.35;;;;;;;2.76;78.36;93932.72;5013363;28;20049;-83
2022/12/12 03:45:38;;;;;;;24.23;14.13;;;;;;;3.65;78.70;94068.81;5021727;28;20500;-83
2022/12/12 03:48:08;;;;;;;20.30;13.80;;;;;;;3.63;79.19;94065.66;5024361;28;20111;-84
2022/12/12 03:50:57;;;;;;;23.13;13.93;;;;;;;3.67;79.32;94058.84;5029742;28;20080;-85
2022/12/12 03:53:35;;;;;;;23.85;14.23;;;;;;;3.73;79.41;94073.56;5018355;28;20801;-83
2022/12/12 03:56:11;;;;;;;19.48;14.35;;;;;;;3.54;78.60;94075.06;5019029;28;20061;-84
2022/12/12 03:58:51;;;;;;;24.20;15.18;;;;;;;3.25;78.97;94024.09;5019124;28;20049;-84
2022/12/12 04:01:22;;;;;;;25.73;14.40;;;;;;;2.84;78.91;93941.91;5018657;28;20129;-83
2022/12/12 04:04:15;;;;;;;23.25;14.02;;;;;;;2.76;79.13;93934.53;5001966;28;20060;-83
2022/12/12 04:07:09;;;;;;;22.60;13.80;;;;;;;3.66;79.33;94078.22;5002179;28;20041;-84
2022/12/12 04:15:22;;;;;;;25.00;14.95;;;;;;;3.62;79.78;94079.81;5013418;28;20089;-84
2022/12/12 04:18:01;;;;;;;23.23;14.65;;;;;;;3.42;79.56;94040.41;5003073;28;20820;-83
2022/12/12 04:23:54;;;;;;;26.00;15.88;;;;;;;3.69;79.96;94093.47;5037503;28;20056;-84
2022/12/12 04:26:38;;;;;;;29.63;16.45;;;;;;;3.15;79.54;94008.31;4989779;28;20176;-83
2022/12/12 04:29:51;;;;;;;23.30;15.70;;;;;;;3.79;79.55;94097.97;5015128;28;20820;-84
2022/12/12 04:32:36;;;;;;;24.75;15.70;;;;;;;2.94;79.35;93979.41;4906207;29;20095;-84
2022/12/12 04:35:11;;;;;;;26.92;15.68;;;;;;;3.67;78.87;94110.50;5005792;28;20050;-84
2022/12/12 04:37:46;;;;;;;23.13;15.32;;;;;;;3.34;78.47;94054.00;5026303;28;20053;-84
2022/12/12 04:40:20;;;;;;;30.83;16.70;;;;;;;3.07;78.88;94010.38;5004743;28;20041;-84
2022/12/12 04:42:53;;;;;;;25.75;16.85;;;;;;;3.69;78.76;94103.16;5003548;28;20077;-84
2022/12/12 04:45:23;;;;;;;23.52;15.15;;;;;;;3.40;79.19;94059.00;5010054;28;20411;-83
2022/12/12 04:47:51;;;;;;;25.98;16.33;;;;;;;3.64;78.86;94096.06;5002397;28;20045;-84
2022/12/12 04:50:20;;;;;;;29.63;17.65;;;;;;;2.79;79.18;93983.78;4990500;28;20112;-85
2022/12/12 04:52:47;;;;;;;28.67;17.10;;;;;;;3.47;78.60;94098.09;5007212;28;20593;-83
2022/12/12 04:55:24;;;;;;;28.42;16.63;;;;;;;3.54;79.48;94093.41;4986680;28;20104;-84
2022/12/12 04:57:53;;;;;;;37.47;16.85;;;;;;;3.53;79.02;94085.78;5019570;28;20061;-83
2022/12/12 05:00:19;;;;;;;27.02;16.13;;;;;;;2.83;79.24;93982.22;5021144;28;20052;-84
2022/12/12 05:03:04;;;;;;;28.02;16.55;;;;;;;2.96;79.60;93989.66;5001469;28;20049;-83
2022/12/12 05:05:48;;;;;;;34.13;17.75;;;;;;;3.59;79.81;94100.50;5024059;28;20036;-84
2022/12/12 05:08:21;;;;;;;34.13;18.70;;;;;;;2.81;79.50;93994.81;5000800;28;20117;-84
2022/12/12 05:10:51;;;;;;;30.75;17.35;;;;;;;3.59;79.71;94116.22;4996763;28;20413;-84
2022/12/12 05:13:19;;;;;;;28.55;17.73;;;;;;;2.59;79.31;93950.44;5007749;28;20055;-85
2022/12/12 05:15:47;;;;;;;28.17;17.20;;;;;;;3.06;80.06;94035.00;5016436;28;20049;-85
2022/12/12 05:18:15;;;;;;;31.15;18.42;;;;;;;2.81;80.10;93976.47;5023803;28;20052;-84
2022/12/12 05:20:49;;;;;;;30.05;17.98;;;;;;;3.65;79.62;94099.50;5021856;28;20049;-85
2022/12/12 05:23:15;;;;;;;31.05;17.92;;;;;;;3.11;79.80;94044.72;4997538;28;20054;-85
2022/12/12 05:25:40;;;;;;;30.85;17.20;;;;;;;2.74;80.37;94004.72;5020762;28;20045;-83
2022/12/12 05:28:06;;;;;;;29.55;18.45;;;;;;;1.03;80.06;93740.00;5002878;28;20143;-84
2022/12/12 05:30:32;;;;;;;30.58;17.88;;;;;;;1.19;79.90;93779.28;5000334;28;20498;-84
2022/12/12 05:32:58;;;;;;;30.42;18.52;;;;;;;1.20;80.51;93765.19;5016884;28;20041;-83
2022/12/12 05:35:23;;;;;;;31.30;19.95;;;;;;;2.56;79.90;93996.22;5018392;28;20139;-84
2022/12/12 05:37:49;;;;;;;31.23;19.20;;;;;;;3.00;79.86;94049.13;5024172;28;20072;-84
2022/12/12 05:40:15;;;;;;;33.22;18.88;;;;;;;3.39;79.89;94132.66;5022266;28;20519;-83
2022/12/12 05:42:40;;;;;;;32.05;18.27;;;;;;;3.02;80.25;94049.66;5003817;28;20049;-83
2022/12/12 05:45:08;;;;;;;35.63;19.05;;;;;;;3.56;80.63;94125.41;5022236;28;20041;-84
2022/12/12 05:47:34;;;;;;;35.83;20.38;;;;;;;3.12;80.66;94059.41;5025012;28;20131;-84
2022/12/12 05:49:59;;;;;;;30.60;17.85;;;;;;;3.60;80.79;94108.09;4999829;28;20406;-84
2022/12/12 05:52:26;;;;;;;32.60;18.20;;;;;;;2.65;81.06;93986.88;5007193;28;20041;-84
2022/12/12 05:54:51;;;;;;;33.30;18.73;;;;;;;3.05;80.44;94038.66;5019660;28;20044;-84
2022/12/12 05:57:17;;;;;;;30.98;18.15;;;;;;;2.38;80.50;93912.88;5004115;28;20057;-84
2022/12/12 05:59:47;;;;;;;37.33;19.05;;;;;;;3.45;80.90;94080.00;5011959;28;20041;-84
2022/12/12 06:02:14;;;;;;;35.97;21.08;;;;;;;3.73;81.18;94120.75;4996809;28;20098;-85
2022/12/12 06:04:39;;;;;;;38.03;20.48;;;;;;;2.50;80.71;93923.97;5000409;28;20129;-84
2022/12/12 06:07:05;;;;;;;32.83;19.73;;;;;;;3.30;81.46;94058.97;5025171;28;20048;-84
2022/12/12 06:09:31;;;;;;;37.50;21.27;;;;;;;3.06;81.39;94016.66;5016997;28;20065;-84
2022/12/12 06:11:56;;;;;;;36.72;20.88;;;;;;;3.47;81.23;94069.25;5019577;28;20037;-84
2022/12/12 06:14:22;;;;;;;36.90;20.58;;;;;;;2.84;80.97;93984.59;4994200;28;20140;-85
2022/12/12 06:16:47;;;;;;;36.92;20.35;;;;;;;2.65;81.69;93962.53;5020121;28;20083;-85
2022/12/12 06:19:13;;;;;;;33.75;18.98;;;;;;;3.71;81.23;94135.97;4993308;28;20084;-86
2022/12/12 06:21:38;;;;;;;39.33;23.40;;;;;;;3.72;81.73;94150.66;5000871;28;20048;-84
2022/12/12 06:24:05;;;;;;;39.92;22.33;;;;;;;3.19;81.35;94072.28;5016428;28;20630;-85
2022/12/12 06:26:31;;;;;;;45.22;26.77;;;;;;;3.67;81.86;94147.19;4996009;28;20052;-85
2022/12/12 06:28:56;;;;;;;50.97;26.00;;;;;;;3.30;82.18;94100.09;5013287;28;20608;-83
2022/12/12 06:31:22;;;;;;;48.00;26.80;;;;;;;2.81;82.91;94045.34;5019730;28;20040;-87
2022/12/12 06:33:47;;;;;;;45.55;27.15;;;;;;;3.32;82.58;94111.91;4997534;28;20033;-85
2022/12/12 06:36:22;;;;;;;46.50;27.00;;;;;;;3.35;81.48;94166.44;5020176;28;20037;-85
2022/12/12 06:38:51;;;;;;;50.13;26.23;;;;;;;2.28;82.23;94018.28;5022689;28;20443;-86
2022/12/12 06:41:17;;;;;;;43.00;24.55;;;;;;;2.68;81.89;94103.34;5005606;28;20045;-86
2022/12/12 06:43:43;;;;;;;41.30;23.90;;;;;;;2.59;81.76;94052.53;4995879;28;20037;-85
2022/12/12 06:46:13;;;;;;;42.90;23.80;;;;;;;3.38;82.12;94184.28;5017075;28;20037;-85
2022/12/12 06:48:38;;;;;;;42.70;23.92;;;;;;;2.49;81.23;94083.84;5004736;28;20317;-86
2022/12/12 06:51:06;;;;;;;49.15;25.25;;;;;;;3.21;82.75;94174.97;5001267;28;20033;-84
2022/12/12 06:53:31;;;;;;;44.60;24.00;;;;;;;3.45;82.14;94189.28;5021151;28;20057;-84
2022/12/12 06:55:57;;;;;;;47.15;25.58;;;;;;;2.74;81.70;94072.78;4997124;28;20137;-85
2022/12/12 06:58:22;;;;;;;49.58;24.48;;;;;;;1.57;82.05;93888.00;5019365;28;20440;-85
2022/12/12 07:00:52;;;;;;;42.22;23.92;;;;;;;3.29;81.48;94136.00;4995606;28;20042;-86
2022/12/12 07:03:18;;;;;;;43.50;25.55;;;;;;;3.78;81.16;94206.53;5003387;28;20061;-84
2022/12/12 07:05:47;;;;;;;47.67;24.20;;;;;;;3.73;80.95;94196.81;5002587;28;20564;-84
2022/12/12 07:08:14;;;;;;;41.95;25.88;;;;;;;2.24;81.05;93974.53;4994100;28;20872;-84
2022/12/12 07:10:40;;;;;;;39.35;24.80;;;;;;;3.12;80.34;94111.81;5006681;28;20076;-83
2022/12/12 07:13:05;;;;;;;43.90;25.85;;;;;;;3.51;80.46;94140.31;5015537;28;20125;-85
2022/12/12 07:15:30;;;;;;;44.42;26.35;;;;;;;3.74;81.26;94168.72;4995388;28;20045;-85
2022/12/12 07:18:02;;;;;;;51.90;28.13;;;;;;;1.71;80.52;93842.91;4996138;28;20534;-84
2022/12/12 07:20:27;;;;;;;51.05;25.88;;;;;;;1.35;80.58;93792.22;4999881;28;20052;-86
2022/12/12 07:22:52;;;;;;;81.43;34.67;;;;;;;2.12;80.21;93922.44;5011311;28;20114;-85
2022/12/12 07:25:18;;;;;;;63.78;32.88;;;;;;;3.46;80.34;94149.72;5004685;28;20589;-87
2022/12/12 07:27:43;;;;;;;67.78;34.60;;;;;;;1.92;80.76;93922.25;5002680;28;20421;-85
2022/12/12 07:30:09;;;;;;;72.55;35.50;;;;;;;3.46;80.72;94157.59;5016810;28;20041;-85
2022/12/12 07:32:35;;;;;;;71.95;34.30;;;;;;;3.70;80.66;94178.97;4994502;28;20045;-85
2022/12/12 07:35:00;;;;;;;58.70;33.22;;;;;;;2.01;80.51;93946.91;5013804;28;20238;-84
2022/12/12 07:37:26;;;;;;;65.45;33.65;;;;;;;3.28;81.27;94147.50;5014050;28;20099;-85
2022/12/12 07:39:51;;;;;;;68.10;30.88;;;;;;;4.15;80.14;94251.84;5001045;28;20069;-84
2022/12/12 07:42:16;;;;;;;62.83;32.10;;;;;;;3.54;79.81;94147.66;4994190;28;20065;-85
2022/12/12 07:44:42;;;;;;;54.13;29.90;;;;;;;3.67;79.09;94152.44;5017541;28;20037;-85
2022/12/12 07:47:07;;;;;;;52.30;28.42;;;;;;;3.69;78.95;94173.97;5011605;28;20049;-84
2022/12/12 07:49:33;;;;;;;45.85;26.42;;;;;;;3.85;79.81;94191.34;4994819;28;20045;-86
2022/12/12 07:51:58;;;;;;;37.92;21.48;;;;;;;2.60;79.67;93988.66;5014837;28;20117;-83
2022/12/12 07:54:24;;;;;;;45.75;22.70;;;;;;;3.46;79.24;94136.63;5009523;28;20026;-86
2022/12/12 07:56:49;;;;;;;32.53;20.40;;;;;;;3.45;77.98;94157.84;4992040;28;20058;-84
2022/12/12 07:59:15;;;;;;;35.17;21.60;;;;;;;3.59;78.85;94192.25;4994084;28;20045;-85
2022/12/12 08:01:40;;;;;;;49.22;23.02;;;;;;;4.47;78.60;94275.34;5014433;28;20040;-86
2022/12/12 08:04:05;;;;;;;38.92;21.73;;;;;;;4.07;78.05;94193.81;5018980;28;20098;-86
2022/12/12 08:06:31;;;;;;;40.47;23.05;;;;;;;2.91;78.25;94013.97;5002014;28;20040;-87
2022/12/12 08:08:57;;;;;;;39.42;22.98;;;;;;;3.65;77.83;94105.53;5004116;28;20470;-88
2022/12/12 08:11:24;;;;;;;38.05;21.75;;;;;;;4.20;77.67;94180.19;5010889;28;20143;-85
2022/12/12 08:13:50;;;;;;;44.15;23.10;;;;;;;4.84;77.27;94259.41;4985180;28;20155;-85
2022/12/12 08:16:28;;;;;;;34.22;22.27;;;;;;;4.42;76.98;94185.28;5012796;28;20041;-84
2022/12/12 08:18:55;;;;;;;42.13;23.08;;;;;;;4.23;76.99;94179.69;4999484;28;20575;-86
2022/12/12 08:21:21;;;;;;;44.60;22.55;;;;;;;4.82;77.57;94303.53;5016961;28;20072;-84
2022/12/12 08:23:47;;;;;;;44.10;23.33;;;;;;;3.77;76.85;94139.38;4992300;28;20784;-85
2022/12/12 08:26:14;;;;;;;45.50;23.90;;;;;;;4.79;76.36;94274.38;5016529;28;20048;-84
2022/12/12 08:28:42;;;;;;;41.42;21.92;;;;;;;3.93;76.08;94153.34;4995131;28;20045;-86
2022/12/12 08:31:08;;;;;;;42.33;23.98;;;;;;;4.16;77.24;94213.25;5000244;28;20045;-86
2022/12/12 08:33:33;;;;;;;44.53;23.27;;;;;;;4.22;77.38;94226.13;5000550;28;20049;-87
2022/12/12 08:35:59;;;;;;;53.50;25.88;;;;;;;4.85;78.55;94310.91;5020424;28;20096;-86
2022/12/12 08:38:24;;;;;;;46.20;24.75;;;;;;;4.99;77.30;94304.13;5001270;28;20055;-84
2022/12/12 08:40:50;;;;;;;50.45;23.70;;;;;;;4.22;77.29;94154.50;4995762;28;20052;-85
2022/12/12 08:43:16;;;;;;;43.53;22.10;;;;;;;4.76;76.67;94235.50;4995105;28;20041;-84
2022/12/12 08:45:41;;;;;;;59.42;23.85;;;;;;;4.91;76.82;94249.44;5004222;28;20519;-86
2022/12/12 08:48:09;;;;;;;60.13;25.40;;;;;;;3.80;76.78;94128.41;5020520;28;20120;-86
2022/12/12 08:50:35;;;;;;;52.92;23.10;;;;;;;3.41;76.48;94005.56;4994657;28;20055;-86
2022/12/12 08:53:01;;;;;;;47.97;24.80;;;;;;;2.75;75.74;93910.19;4998065;28;20368;-88
2022/12/12 08:55:27;;;;;;;59.70;26.52;;;;;;;1.52;76.58;93688.38;4992299;28;20471;-87
2022/12/12 08:57:53;;;;;;;46.22;23.80;;;;;;;2.48;76.14;93823.19;4993701;28;20049;-86
2022/12/12 09:00:19;;;;;;;52.30;25.20;;;;;;;2.82;76.49;93907.38;4986321;28;20625;-87
2022/12/12 09:02:44;;;;;;;51.17;25.38;;;;;;;3.74;75.79;94001.69;5015006;28;20515;-87
2022/12/12 09:05:10;;;;;;;40.83;22.73;;;;;;;3.84;75.08;94020.09;4999302;28;20081;-86
2022/12/12 09:07:36;;;;;;;47.30;24.05;;;;;;;4.95;75.60;94189.28;5000689;28;20067;-86
2022/12/12 09:10:03;;;;;;;50.55;25.00;;;;;;;3.48;75.61;93947.66;5021648;28;20046;-87
2022/12/12 09:12:29;;;;;;;41.75;23.25;;;;;;;4.81;75.10;94169.81;5016835;28;20821;-85
2022/12/12 09:14:54;;;;;;;52.45;24.58;;;;;;;4.89;74.91;94177.97;5014835;28;20046;-87
2022/12/12 09:17:19;;;;;;;43.17;24.02;;;;;;;5.32;74.28;94216.09;4996227;28;20824;-89
2022/12/12 09:19:45;;;;;;;46.03;25.02;;;;;;;5.50;74.13;94225.28;4993654;28;20038;-88
2022/12/12 09:22:11;;;;;;;43.35;25.90;;;;;;;5.98;74.36;94284.44;5015640;28;20037;-87
2022/12/12 09:24:36;;;;;;;39.95;23.80;;;;;;;5.49;75.40;94207.16;4999880;28;20033;-87
2022/12/12 09:27:02;;;;;;;45.38;26.50;;;;;;;5.94;75.20;94265.00;5002194;28;20045;-86
2022/12/12 09:29:28;;;;;;;49.60;25.50;;;;;;;5.52;75.03;94191.63;5002990;28;20102;-87
2022/12/12 09:31:54;;;;;;;41.53;23.90;;;;;;;6.07;73.61;94276.78;5004402;28;20041;-87
2022/12/12 09:34:19;;;;;;;39.58;22.35;;;;;;;5.35;73.71;94162.97;5004747;28;20091;-87
2022/12/12 09:36:44;;;;;;;52.72;23.85;;;;;;;5.37;73.88;94153.00;5020123;28;20037;-86
2022/12/12 09:39:10;;;;;;;41.80;23.38;;;;;;;4.86;74.25;94072.66;4997573;28;20131;-87
2022/12/12 09:41:35;;;;;;;41.55;25.05;;;;;;;5.30;74.21;94136.69;5017260;28;20124;-86
2022/12/12 09:44:11;;;;;;;43.08;26.55;;;;;;;6.08;73.76;94231.78;4991553;28;20520;-87
2022/12/12 09:46:57;;;;;;;49.60;26.35;;;;;;;6.28;74.12;94259.09;4989520;28;20192;-88
2022/12/12 09:49:53;;;;;;;45.03;26.42;;;;;;;6.32;74.45;94255.66;4990262;28;20033;-87
2022/12/12 09:52:40;;;;;;;54.50;28.85;;;;;;;5.02;74.29;94088.13;4990894;28;20495;-86
2022/12/12 09:55:24;;;;;;;60.95;33.33;;;;;;;6.32;75.17;94257.53;4992262;28;20065;-85
2022/12/12 09:58:01;;;;;;;75.85;40.30;;;;;;;5.13;74.73;94053.94;4973557;28;20045;-86
2022/12/12 10:00:34;;;;;;;71.72;39.65;;;;;;;5.43;75.25;94103.81;4974235;28;20144;-87
2022/12/12 10:03:04;;;;;;;83.68;42.50;;;;;;;6.46;75.27;94254.03;4971787;28;20042;-86
2022/12/12 10:05:38;;;;;;;95.53;46.08;;;;;;;6.30;76.17;94257.00;4980561;28;20066;-86
2022/12/12 10:08:19;;;;;;;88.68;45.38;;;;;;;5.73;75.89;94163.41;4978310;28;20041;-87
2022/12/12 10:10:49;;;;;;;82.70;42.30;;;;;;;5.87;76.40;94188.13;4993169;28;20061;-85
2022/12/12 10:13:20;;;;;;;84.25;45.70;;;;;;;5.44;75.54;94103.53;4992952;28;20060;-86
2022/12/12 10:15:51;;;;;;;84.77;43.33;;;;;;;5.41;75.47;94092.78;4979577;28;20053;-86
2022/12/12 10:18:30;;;;;;;89.40;47.03;;;;;;;5.99;76.49;94204.44;4978846;28;20118;-86
2022/12/12 10:21:00;;;;;;;83.20;44.15;;;;;;;6.41;76.45;94253.25;4997071;28;20054;-84
2022/12/12 10:23:36;;;;;;;90.85;45.80;;;;;;;5.73;75.67;94119.50;4982157;28;20201;-84
2022/12/12 10:26:09;;;;;;;89.15;47.05;;;;;;;5.99;75.81;94158.91;4985032;28;20076;-86
2022/12/12 10:28:34;;;;;;;89.18;48.72;;;;;;;6.15;75.75;94174.38;4979604;28;20049;-87
2022/12/12 10:31:09;;;;;;;76.45;44.80;;;;;;;6.19;75.47;94156.19;4983621;28;21806;-86
2022/12/12 10:33:58;;;;;;;81.82;46.00;;;;;;;6.59;75.26;94231.56;4994410;28;20099;-85
2022/12/12 10:36:52;;;;;;;87.20;48.80;;;;;;;6.62;75.25;94212.59;4966176;28;20049;-86
2022/12/12 10:39:25;;;;;;;95.35;52.00;;;;;;;6.83;76.06;94197.47;4965862;28;20585;-87
2022/12/12 10:42:26;;;;;;;89.20;50.22;;;;;;;6.77;76.01;94117.66;4985026;28;20084;-88
2022/12/12 10:45:10;;;;;;;80.63;46.15;;;;;;;6.89;75.53;94062.72;4896814;29;20044;-86
2022/12/12 10:47:35;;;;;;;80.63;50.25;;;;;;;6.31;73.90;93985.50;4973332;28;20045;-88
2022/12/12 10:50:26;;;;;;;95.13;48.33;;;;;;;7.09;73.72;94111.09;4999588;28;20037;-86
2022/12/12 10:52:51;;;;;;;75.82;43.67;;;;;;;7.25;72.99;94144.13;5002467;28;20073;-87
2022/12/12 10:55:25;;;;;;;95.95;48.83;;;;;;;7.58;72.57;94174.97;4979608;28;20124;-88
2022/12/12 10:58:02;;;;;;;79.38;45.88;;;;;;;7.56;72.08;94187.66;4998495;28;20069;-86
2022/12/12 11:00:49;;;;;;;66.70;39.83;;;;;;;7.38;71.94;94145.34;5001524;28;20158;-88
2022/12/12 11:03:28;;;;;;;65.90;39.15;;;;;;;7.21;72.16;94122.81;4995532;28;20053;-85
2022/12/12 11:05:55;;;;;;;68.60;38.67;;;;;;;6.98;72.25;94145.44;5001327;28;20370;-84
2022/12/12 11:08:24;;;;;;;66.60;36.35;;;;;;;7.60;72.30;94209.78;5015227;28;20048;-84
2022/12/12 11:11:18;;;;;;;67.55;37.30;;;;;;;7.34;72.70;94158.31;5016795;28;20497;-85
2022/12/12 11:13:49;;;;;;;65.57;37.65;;;;;;;7.39;73.29;94171.47;5006848;28;20048;-85
2022/12/12 11:16:28;;;;;;;60.78;36.85;;;;;;;7.66;73.12;94207.88;5006037;28;20240;-85
2022/12/12 11:19:44;;;;;;;72.65;38.72;;;;;;;7.72;73.17;94202.28;5096621;23;20042;-89
2022/12/12 11:22:27;;;;;;;74.68;36.83;;;;;;;7.67;72.92;94210.25;5060216;22;20062;-85
2022/12/12 11:24:53;;;;;;;69.20;37.03;;;;;;;5.55;73.04;93857.09;5001255;28;20146;-84
2022/12/12 11:27:25;;;;;;;67.60;37.88;;;;;;;7.75;73.30;94199.09;4997019;28;20117;-86
2022/12/12 11:29:54;;;;;;;61.67;36.97;;;;;;;5.36;72.27;93830.66;4994519;28;20054;-87
2022/12/12 11:32:24;;;;;;;57.70;35.83;;;;;;;7.50;72.59;94129.94;4998769;28;20127;-85
2022/12/12 11:34:54;;;;;;;64.30;35.42;;;;;;;5.85;71.73;93885.03;4994812;28;20037;-85
2022/12/12 11:37:25;;;;;;;69.97;36.28;;;;;;;5.88;72.39;93923.16;4996860;28;20059;-85
2022/12/12 11:39:53;;;;;;;66.93;35.30;;;;;;;5.80;72.26;93892.94;4997259;28;20132;-84
2022/12/12 11:42:20;;;;;;;80.43;39.55;;;;;;;7.61;72.04;94171.00;4999300;28;20155;-84
2022/12/12 11:44:57;;;;;;;64.68;37.08;;;;;;;5.97;72.76;93958.38;4996624;28;20545;-85
2022/12/12 11:47:37;;;;;;;65.97;38.65;;;;;;;7.60;72.29;94182.63;4999504;28;20045;-85
2022/12/12 11:50:17;;;;;;;64.95;35.80;;;;;;;6.76;72.44;94084.47;4997191;28;20046;-85
2022/12/12 11:52:43;;;;;;;66.28;36.25;;;;;;;6.80;73.58;94130.25;5001452;28;20151;-84
2022/12/12 11:55:15;;;;;;;66.20;33.85;;;;;;;7.30;73.60;94165.22;5000647;28;20049;-84
2022/12/12 11:57:40;;;;;;;;;;;;;;;7.18;72.79;94157.66;5001638;28;20129;-86